createdAt,value
2022-08-26T00:04:42.038Z,46.01
2022-08-26T00:09:47.599Z,45.17
2022-08-26T00:14:51.209Z,45.60
2022-08-26T00:19:54.974Z,45.03
2022-08-26T00:24:59.767Z,45.22
2022-08-26T00:30:03.770Z,45.11
2022-08-26T00:35:08.854Z,44.87
2022-08-26T00:40:16.410Z,45.72
2022-08-26T00:45:20.847Z,45.99
2022-08-26T00:50:27.706Z,46.89
2022-08-26T00:55:38.163Z,46.26
2022-08-26T01:00:41.846Z,46.38
2022-08-26T01:06:06.630Z,47.26
2022-08-26T01:11:17.677Z,46.81
2022-08-26T01:16:22.405Z,46.94
2022-08-26T01:21:29.814Z,47.56
2022-08-26T01:26:40.414Z,47.11
2022-08-26T01:31:47.494Z,47.54
2022-08-26T01:36:54.213Z,47.86
2022-08-26T01:42:03.024Z,47.08
2022-08-26T01:47:08.093Z,47.28
2022-08-26T01:52:13.762Z,48.09
2022-08-26T01:57:20.168Z,48.05
2022-08-26T02:02:24.594Z,48.00
2022-08-26T02:07:29.165Z,47.89
2022-08-26T02:12:34.660Z,48.00
2022-08-26T02:17:41.054Z,48.72
2022-08-26T02:22:46.045Z,48.57
2022-08-26T02:27:50.992Z,48.61
2022-08-26T02:32:54.776Z,48.41
2022-08-26T02:37:58.357Z,47.89
2022-08-26T02:43:03.971Z,48.43
2022-08-26T02:48:15.016Z,48.60
2022-08-26T02:53:24.954Z,48.68
2022-08-26T02:58:30.061Z,48.78
2022-08-26T03:03:33.946Z,48.75
2022-08-26T03:08:37.418Z,49.00
2022-08-26T03:13:42.423Z,48.57
2022-08-26T03:18:46.996Z,48.86
2022-08-26T03:23:56.063Z,49.00
2022-08-26T03:29:21.014Z,49.72
2022-08-26T03:34:24.763Z,50.31
2022-08-26T03:39:31.635Z,49.13
2022-08-26T03:44:37.658Z,50.10
2022-08-26T03:49:45.539Z,49.84
2022-08-26T03:54:49.166Z,50.08
2022-08-26T03:59:54.025Z,50.33
2022-08-26T04:04:57.883Z,50.13
2022-08-26T04:10:02.071Z,51.16
2022-08-26T04:15:08.503Z,50.64
2022-08-26T04:20:13.878Z,50.99
2022-08-26T04:25:20.529Z,51.28
2022-08-26T04:30:25.586Z,50.90
2022-08-26T04:35:29.003Z,50.97
2022-08-26T04:40:33.159Z,52.03
2022-08-26T04:45:38.200Z,51.18
2022-08-26T04:50:43.034Z,52.09
2022-08-26T04:55:46.597Z,51.20
2022-08-26T05:00:54.907Z,51.23
2022-08-26T05:05:59.035Z,51.74
2022-08-26T05:11:05.953Z,50.84
2022-08-26T05:16:12.362Z,51.03
2022-08-26T05:21:20.135Z,50.75
2022-08-26T05:26:25.047Z,50.54
2022-08-26T05:31:32.294Z,52.07
2022-08-26T05:36:36.946Z,52.06
2022-08-26T05:41:42.832Z,53.37
2022-08-26T05:46:49.743Z,52.59
2022-08-26T05:51:54.749Z,52.33
2022-08-26T05:56:58.194Z,52.42
2022-08-26T06:02:03.861Z,51.82
2022-08-26T06:07:07.486Z,52.93
2022-08-26T06:12:15.708Z,52.97
2022-08-26T06:17:23.324Z,53.25
2022-08-26T06:22:44.363Z,54.54
2022-08-26T06:27:48.842Z,52.35
2022-08-26T06:32:54.011Z,52.57
2022-08-26T06:37:58.295Z,52.27
2022-08-26T06:43:01.831Z,52.92
2022-08-26T06:48:07.591Z,52.60
2022-08-26T06:53:13.715Z,52.35
2022-08-26T06:58:17.825Z,53.38
2022-08-26T07:03:24.774Z,52.31
2022-08-26T07:08:28.297Z,52.43
2022-08-26T07:13:31.777Z,51.36
2022-08-26T07:18:37.662Z,51.22
2022-08-26T07:23:42.838Z,51.03
2022-08-26T07:28:48.549Z,50.37
2022-08-26T07:33:54.015Z,50.86
2022-08-26T07:38:58.454Z,50.67
2022-08-26T07:44:01.916Z,50.28
2022-08-26T07:49:09.305Z,49.83
2022-08-26T07:54:12.950Z,49.72
2022-08-26T07:59:18.463Z,50.10
2022-08-26T08:04:26.563Z,49.84
2022-08-26T08:09:30.303Z,48.89
2022-08-26T08:14:34.538Z,48.56
2022-08-26T08:19:39.650Z,48.95
2022-08-26T08:24:43.122Z,49.22
2022-08-26T08:29:47.379Z,49.74
2022-08-26T08:34:52.855Z,49.30
2022-08-26T08:39:56.348Z,48.58
2022-08-26T08:45:06.211Z,48.64
2022-08-26T08:50:21.226Z,48.89
2022-08-26T08:55:27.066Z,47.73
2022-08-26T09:00:39.664Z,46.13
2022-08-26T09:05:48.797Z,45.28
2022-08-26T09:10:55.492Z,43.76
2022-08-26T09:16:07.275Z,43.48
2022-08-26T09:21:14.033Z,42.86
2022-08-26T09:26:20.082Z,42.23
2022-08-26T09:31:27.368Z,41.68
2022-08-26T09:36:41.442Z,41.41
2022-08-26T09:41:45.119Z,41.18
2022-08-26T09:46:55.886Z,40.60
2022-08-26T09:52:23.404Z,40.45
2022-08-26T09:57:30.605Z,40.14
2022-08-26T10:02:41.527Z,38.28
2022-08-26T10:07:53.402Z,37.38
2022-08-26T10:13:04.843Z,36.97
2022-08-26T10:18:13.209Z,35.14
2022-08-26T10:23:20.356Z,33.98
2022-08-26T10:28:32.342Z,33.56
2022-08-26T10:33:38.756Z,32.00
2022-08-26T10:38:44.432Z,31.60
2022-08-26T10:43:51.999Z,31.96
2022-08-26T10:49:00.028Z,32.46
2022-08-26T10:54:07.736Z,31.91
2022-08-26T10:59:20.057Z,31.78
2022-08-26T11:04:44.391Z,30.67
2022-08-26T11:09:51.898Z,30.63
2022-08-26T11:14:59.062Z,30.17
2022-08-26T11:20:09.206Z,28.97
2022-08-26T11:25:19.261Z,29.12
2022-08-26T11:30:44.220Z,28.59
2022-08-26T11:35:50.015Z,28.48
2022-08-26T11:41:07.665Z,27.91
2022-08-26T11:46:13.599Z,28.55
2022-08-26T11:51:23.628Z,28.51
2022-08-26T11:56:31.772Z,28.83
2022-08-26T12:01:37.409Z,26.92
2022-08-26T12:06:47.930Z,26.49
2022-08-26T12:11:54.117Z,27.01
2022-08-26T12:17:10.370Z,27.76
2022-08-26T12:22:18.868Z,25.53
2022-08-26T12:27:27.346Z,25.51
2022-08-26T12:32:32.360Z,24.81
2022-08-26T12:37:39.739Z,23.77
2022-08-26T12:42:45.673Z,23.76
2022-08-26T12:47:49.132Z,23.69
2022-08-26T12:52:57.295Z,24.53
2022-08-26T12:58:23.666Z,25.57
2022-08-26T13:03:43.817Z,24.68
2022-08-26T13:08:48.293Z,24.80
2022-08-26T13:13:56.646Z,25.44
2022-08-26T13:19:02.357Z,26.94
2022-08-26T13:24:08.676Z,27.35
2022-08-26T13:29:14.109Z,28.37
2022-08-26T13:34:19.978Z,28.79
2022-08-26T13:39:24.319Z,28.75
2022-08-26T13:44:29.535Z,28.05
2022-08-26T13:49:33.096Z,27.66
2022-08-26T13:54:36.758Z,29.09
2022-08-26T13:59:41.624Z,29.27
2022-08-26T14:04:45.146Z,29.72
2022-08-26T14:09:48.603Z,29.34
2022-08-26T14:14:53.521Z,31.15
2022-08-26T14:19:57.008Z,31.85
2022-08-26T14:25:01.071Z,33.75
2022-08-26T14:30:06.703Z,34.80
2022-08-26T14:35:11.971Z,36.33
2022-08-26T14:40:18.621Z,36.72
2022-08-26T14:45:26.088Z,37.08
2022-08-26T14:50:30.650Z,37.00
2022-08-26T14:55:36.125Z,36.97
2022-08-26T15:00:40.985Z,36.24
2022-08-26T15:05:48.009Z,36.33
2022-08-26T15:10:52.849Z,36.51
2022-08-26T15:15:58.734Z,36.62
2022-08-26T15:21:03.626Z,36.56
2022-08-26T15:26:13.536Z,36.56
2022-08-26T15:31:20.108Z,35.82
2022-08-26T15:36:24.683Z,36.32
2022-08-26T15:41:29.248Z,37.00
2022-08-26T15:46:37.463Z,36.86
2022-08-26T15:51:45.144Z,38.35
2022-08-26T15:56:52.023Z,38.88
2022-08-26T16:01:57.586Z,39.00
2022-08-26T16:07:01.191Z,36.95
2022-08-26T16:12:05.156Z,37.54
2022-08-26T16:17:10.083Z,38.93
2022-08-26T16:22:13.559Z,41.08
2022-08-26T16:27:18.036Z,40.62
2022-08-26T16:32:22.902Z,41.21
2022-08-26T16:37:26.515Z,43.20
2022-08-26T16:42:29.968Z,41.53
2022-08-26T16:47:37.575Z,42.98
2022-08-26T16:52:41.768Z,43.46
2022-08-26T16:57:46.694Z,42.28
2022-08-26T17:02:51.590Z,44.72
2022-08-26T17:07:56.324Z,41.11
2022-08-26T17:13:00.336Z,41.26
2022-08-26T17:18:06.694Z,40.16
2022-08-26T17:23:10.335Z,41.93
2022-08-26T17:28:14.226Z,43.20
2022-08-26T17:33:24.431Z,42.41
2022-08-26T17:38:29.136Z,43.40
2022-08-26T17:43:32.659Z,46.22
2022-08-26T17:48:38.207Z,49.45
2022-08-26T17:53:42.240Z,48.31
2022-08-26T17:58:50.928Z,48.05
2022-08-26T18:04:00.365Z,49.69
2022-08-26T18:09:04.963Z,53.75
2022-08-26T18:14:13.384Z,55.73
2022-08-26T18:19:18.503Z,54.10
2022-08-26T18:24:22.065Z,51.96
2022-08-26T18:29:29.361Z,53.59
2022-08-26T18:34:35.554Z,55.10
2022-08-26T18:39:39.035Z,56.39
2022-08-26T18:44:43.707Z,53.85
2022-08-26T18:49:51.171Z,53.86
2022-08-26T18:54:55.325Z,53.23
2022-08-26T18:59:59.843Z,53.00
2022-08-26T19:05:06.833Z,53.57
2022-08-26T19:10:11.520Z,55.54
2022-08-26T19:15:15.011Z,56.12
2022-08-26T19:20:20.100Z,57.67
2022-08-26T19:25:23.584Z,56.21
2022-08-26T19:30:29.361Z,59.98
2022-08-26T19:35:35.914Z,63.65
2022-08-26T19:40:40.125Z,60.26
2022-08-26T19:45:43.569Z,61.98
2022-08-26T19:50:48.481Z,59.80
2022-08-26T19:55:52.362Z,58.28
2022-08-26T20:00:55.827Z,58.16
2022-08-26T20:06:00.979Z,58.04
2022-08-26T20:11:05.786Z,56.33
2022-08-26T20:16:10.235Z,58.26
2022-08-26T20:21:31.510Z,58.81
2022-08-26T20:26:36.765Z,57.75
2022-08-26T20:31:40.475Z,58.56
2022-08-26T20:36:46.638Z,58.71
2022-08-26T20:41:50.521Z,58.97
2022-08-26T20:46:55.210Z,62.43
2022-08-26T20:52:00.365Z,59.35
2022-08-26T20:57:03.909Z,59.81
2022-08-26T21:02:07.517Z,60.17
2022-08-26T21:07:12.445Z,59.02
2022-08-26T21:12:16.166Z,59.14
2022-08-26T21:17:19.686Z,59.15
2022-08-26T21:22:25.012Z,61.64
2022-08-26T21:27:28.546Z,62.92
2022-08-26T21:32:32.618Z,63.38
2022-08-26T21:37:37.494Z,64.70
2022-08-26T21:42:41.152Z,60.11
2022-08-26T21:47:45.680Z,60.62
2022-08-26T21:52:50.501Z,62.83
2022-08-26T21:57:53.990Z,60.62
2022-08-26T22:03:00.781Z,59.71
2022-08-26T22:08:05.706Z,61.86
2022-08-26T22:13:09.719Z,62.81
2022-08-26T22:18:13.178Z,62.40
2022-08-26T22:23:18.087Z,62.19
2022-08-26T22:28:21.613Z,62.06
2022-08-26T22:33:26.606Z,60.73
2022-08-26T22:38:31.653Z,58.53
2022-08-26T22:43:36.086Z,60.98
2022-08-26T22:48:39.623Z,61.41
2022-08-26T22:53:45.132Z,60.58
2022-08-26T22:58:49.086Z,61.21
2022-08-26T23:03:53.730Z,61.56
2022-08-26T23:08:58.597Z,59.72
2022-08-26T23:14:06.104Z,63.16
2022-08-26T23:19:11.400Z,62.68
2022-08-26T23:24:17.282Z,60.32
2022-08-26T23:29:20.767Z,61.38
2022-08-26T23:34:41.660Z,59.71
2022-08-26T23:39:46.480Z,60.12
2022-08-26T23:44:50.130Z,63.33
2022-08-26T23:49:53.622Z,63.34
2022-08-26T23:54:58.532Z,61.58
